Delta Virtual Airport Information Service

Cancun International Airport

ICAO: MMUN Country: Mexico
Latitude: 21.0365 Longitude: -86.877
Latest Arrival : NKS488 (1) (KIAH-MMUN) Latest Departure : DAL530 (4A) (MMUN-KATL)


WX CaptureLIVE
Data provided by noaa.gov | Fetched at 00:42:45

METAR : MMUN 250446Z 11004KT 7SM BKN015TCU BKN070 25/25 A2980 RMK 8/260

TAF :


Runway Data for MMUN
Data provided by openaviationdata.com

Runway ID Mag Var Hdg Length Elevation Surface ILS Freq ILS Id ILS Slope
12 2 121° 11497 ft 20 ft Asphalt 108.55 IABA 3
30 2 301° 11497 ft 20 ft Asphalt -- -- --

Cancun International Airport, Mexico
Use only for reference purposes



Not for navigational purposes.